createdAt,value
2018-06-23T00:01:32.347Z,92.30
2018-06-23T00:04:04.770Z,92.30
2018-06-23T00:06:37.293Z,92.30
2018-06-23T00:09:09.758Z,92.10
2018-06-23T00:11:42.170Z,91.80
2018-06-23T00:14:16.425Z,91.70
2018-06-23T00:16:48.785Z,91.50
2018-06-23T00:19:21.245Z,91.50
2018-06-23T00:21:53.779Z,91.20
2018-06-23T00:24:26.470Z,91.20
2018-06-23T00:26:58.929Z,91.20
2018-06-23T00:29:31.403Z,90.90
2018-06-23T00:32:03.826Z,90.90
2018-06-23T00:34:36.617Z,91.00
2018-06-23T00:37:09.241Z,90.90
2018-06-23T00:39:41.669Z,91.00
2018-06-23T00:42:14.108Z,91.00
2018-06-23T00:44:46.587Z,91.00
2018-06-23T00:47:19.727Z,91.00
2018-06-23T00:49:52.150Z,91.20
2018-06-23T00:52:24.878Z,91.00
2018-06-23T00:54:57.307Z,91.40
2018-06-23T00:57:29.745Z,90.90
2018-06-23T01:00:02.425Z,91.00
2018-06-23T01:02:34.939Z,91.10
2018-06-23T01:05:07.416Z,91.00
2018-06-23T01:07:39.909Z,91.00
2018-06-23T01:10:12.615Z,91.00
2018-06-23T01:12:45.044Z,91.40
2018-06-23T01:15:17.665Z,90.80
2018-06-23T01:17:50.102Z,90.60
2018-06-23T01:20:22.621Z,90.50
2018-06-23T01:22:55.088Z,90.40
2018-06-23T01:25:27.568Z,90.40
2018-06-23T01:28:00.029Z,90.60
2018-06-23T01:30:32.497Z,90.20
2018-06-23T01:33:04.963Z,90.00
2018-06-23T01:35:37.489Z,89.60
2018-06-23T01:38:09.884Z,89.50
2018-06-23T01:40:42.361Z,89.40
2018-06-23T01:43:14.821Z,89.70
2018-06-23T01:45:47.545Z,89.80
2018-06-23T01:48:19.994Z,89.70
2018-06-23T01:50:52.476Z,89.40
2018-06-23T01:53:24.893Z,89.10
2018-06-23T01:55:57.338Z,89.30
2018-06-23T01:58:29.797Z,89.30
2018-06-23T02:01:02.270Z,89.20
2018-06-23T02:03:34.721Z,89.10
2018-06-23T02:06:07.329Z,88.90
2018-06-23T02:08:39.846Z,88.60
2018-06-23T02:11:12.782Z,88.50
2018-06-23T02:13:45.557Z,88.40
2018-06-23T02:16:23.614Z,88.00
2018-06-23T02:19:01.922Z,88.00
2018-06-23T02:21:40.066Z,88.50
2018-06-23T02:24:18.320Z,88.40
2018-06-23T02:26:56.848Z,88.10
2018-06-23T02:29:34.995Z,88.00
2018-06-23T02:32:13.305Z,87.90
2018-06-23T02:34:51.582Z,88.10
2018-06-23T02:37:24.028Z,87.90
2018-06-23T02:39:56.439Z,88.10
2018-06-23T02:42:28.946Z,87.70
2018-06-23T02:45:01.493Z,87.40
2018-06-23T02:47:33.946Z,87.70
2018-06-23T02:50:06.487Z,87.50
2018-06-23T02:52:38.958Z,87.30
2018-06-23T02:57:44.863Z,86.80
2018-06-23T03:00:17.349Z,87.00
2018-06-23T03:02:49.803Z,86.00
2018-06-23T03:05:22.340Z,86.40
2018-06-23T03:07:55.004Z,86.20
2018-06-23T03:10:28.433Z,86.30
2018-06-23T03:13:01.071Z,86.40
2018-06-23T03:15:33.577Z,86.30
2018-06-23T03:18:06.026Z,86.00
2018-06-23T03:20:38.504Z,85.80
2018-06-23T03:23:10.937Z,86.00
2018-06-23T03:25:43.371Z,86.10
2018-06-23T03:28:15.773Z,86.80
2018-06-23T03:30:48.257Z,86.10
2018-06-23T03:33:22.724Z,85.40
2018-06-23T03:35:55.193Z,86.10
2018-06-23T03:38:29.684Z,85.40
2018-06-23T03:41:02.466Z,86.00
2018-06-23T03:43:34.921Z,86.10
2018-06-23T03:48:40.161Z,86.10
2018-06-23T03:51:14.082Z,86.10
2018-06-23T03:53:46.521Z,86.10
2018-06-23T03:56:18.942Z,86.00
2018-06-23T03:58:51.642Z,86.10
2018-06-23T04:01:24.144Z,86.10
2018-06-23T04:03:56.621Z,86.00
2018-06-23T04:06:29.155Z,85.80
2018-06-23T04:09:01.976Z,85.90
2018-06-23T04:11:34.918Z,85.90
2018-06-23T04:16:40.379Z,86.00
2018-06-23T04:19:13.082Z,86.60
2018-06-23T04:21:46.241Z,86.70
2018-06-23T04:24:18.694Z,86.70
2018-06-23T04:26:51.154Z,86.90
2018-06-23T04:29:23.626Z,87.10
2018-06-23T04:31:56.130Z,87.10
2018-06-23T04:34:28.748Z,86.90
2018-06-23T04:37:01.210Z,87.20
2018-06-23T04:39:33.594Z,87.10
2018-06-23T04:42:06.049Z,87.50
2018-06-23T04:44:38.490Z,87.70
2018-06-23T04:49:43.606Z,87.70
2018-06-23T04:52:16.186Z,88.00
2018-06-23T04:54:48.618Z,88.00
2018-06-23T04:57:21.136Z,88.10
2018-06-23T04:59:53.539Z,88.20
2018-06-23T05:02:26.004Z,88.10
2018-06-23T05:04:58.430Z,88.50
2018-06-23T05:07:31.067Z,88.50
2018-06-23T05:10:03.558Z,88.80
2018-06-23T05:12:36.685Z,88.70
2018-06-23T05:15:09.141Z,88.70
2018-06-23T05:20:14.197Z,87.60
2018-06-23T05:22:46.585Z,88.60
2018-06-23T05:25:19.231Z,88.70
2018-06-23T05:27:51.663Z,88.90
2018-06-23T05:30:24.396Z,89.00
2018-06-23T05:32:57.068Z,88.80
2018-06-23T05:35:29.493Z,88.90
2018-06-23T05:38:01.943Z,88.60
2018-06-23T05:40:34.346Z,88.40
2018-06-23T05:43:06.767Z,88.50
2018-06-23T05:45:39.423Z,88.00
2018-06-23T05:48:13.259Z,87.60
2018-06-23T05:50:45.768Z,88.30
2018-06-23T05:53:18.660Z,88.00
2018-06-23T05:55:52.104Z,87.60
2018-06-23T05:58:25.520Z,87.60
2018-06-23T06:00:58.811Z,87.80
2018-06-23T06:03:31.565Z,87.80
2018-06-23T06:06:04.287Z,88.00
2018-06-23T06:08:37.066Z,87.80
2018-06-23T06:11:10.295Z,88.20
2018-06-23T06:13:43.100Z,88.30
2018-06-23T06:16:16.264Z,88.80
2018-06-23T06:18:49.135Z,88.50
2018-06-23T06:21:21.726Z,88.30
2018-06-23T06:23:54.540Z,88.40
2018-06-23T06:26:26.989Z,88.70
2018-06-23T06:28:59.526Z,88.40
2018-06-23T06:31:31.958Z,88.60
2018-06-23T06:34:04.751Z,88.60
2018-06-23T06:36:37.447Z,88.30
2018-06-23T06:39:09.961Z,88.90
2018-06-23T06:41:42.764Z,88.80
2018-06-23T06:44:15.444Z,89.20
2018-06-23T06:46:48.150Z,89.70
2018-06-23T06:49:20.789Z,90.30
2018-06-23T06:51:53.369Z,91.00
2018-06-23T06:54:26.535Z,91.80
2018-06-23T06:56:58.963Z,92.60
2018-06-23T06:59:31.530Z,93.50
2018-06-23T07:02:04.356Z,94.10
2018-06-23T07:04:36.884Z,94.90
2018-06-23T07:09:42.226Z,96.50
2018-06-23T07:12:14.693Z,97.30
2018-06-23T07:14:47.193Z,97.30
2018-06-23T07:17:19.621Z,97.30
2018-06-23T07:19:52.103Z,97.70
2018-06-23T07:22:24.633Z,97.30
2018-06-23T07:24:58.137Z,96.80
2018-06-23T07:27:30.565Z,96.80
2018-06-23T07:30:03.118Z,96.70
2018-06-23T07:32:35.599Z,96.40
2018-06-23T07:35:08.211Z,96.50
2018-06-23T07:37:40.684Z,96.60
2018-06-23T07:40:13.097Z,97.10
2018-06-23T07:42:45.814Z,97.00
2018-06-23T07:45:18.263Z,96.90
2018-06-23T07:47:50.720Z,97.20
2018-06-23T07:50:23.202Z,96.80
2018-06-23T07:52:55.748Z,96.70
2018-06-23T07:55:29.013Z,96.50
2018-06-23T08:00:36.316Z,96.50
2018-06-23T08:03:08.737Z,96.20
2018-06-23T08:05:41.296Z,96.30
2018-06-23T08:08:14.149Z,96.00
2018-06-23T08:10:46.625Z,96.00
2018-06-23T08:13:19.136Z,95.90
2018-06-23T08:15:53.348Z,95.40
2018-06-23T08:18:26.304Z,95.30
2018-06-23T08:20:59.331Z,95.40
2018-06-23T08:23:32.083Z,95.00
2018-06-23T08:26:04.800Z,95.00
2018-06-23T08:28:37.278Z,95.00
2018-06-23T08:31:09.741Z,94.90
2018-06-23T08:33:43.130Z,95.10
2018-06-23T08:36:15.800Z,95.10
2018-06-23T08:38:48.231Z,94.80
2018-06-23T08:41:20.677Z,94.90
2018-06-23T08:43:53.744Z,95.20
2018-06-23T08:46:26.220Z,94.70
2018-06-23T08:48:58.694Z,94.90
2018-06-23T08:51:31.265Z,94.60
2018-06-23T08:54:03.826Z,94.40
2018-06-23T08:56:38.281Z,94.10
2018-06-23T08:59:11.955Z,93.90
2018-06-23T09:01:44.814Z,93.80
2018-06-23T09:04:17.412Z,93.60
2018-06-23T09:06:49.851Z,93.30
2018-06-23T09:09:22.261Z,93.10
2018-06-23T09:11:54.749Z,93.10
2018-06-23T09:14:27.211Z,93.10
2018-06-23T09:16:59.754Z,92.70
2018-06-23T09:22:04.981Z,92.70
2018-06-23T09:24:37.482Z,92.30
2018-06-23T09:29:43.914Z,92.10
2018-06-23T09:32:17.439Z,91.90
2018-06-23T09:34:51.250Z,91.50
2018-06-23T09:37:24.152Z,91.50
2018-06-23T09:39:57.196Z,91.50
2018-06-23T09:42:29.790Z,91.90
2018-06-23T09:45:02.761Z,91.80
2018-06-23T09:47:36.125Z,91.50
2018-06-23T09:50:08.962Z,92.00
2018-06-23T09:52:41.805Z,92.20
2018-06-23T09:55:15.434Z,92.20
2018-06-23T09:57:48.390Z,92.00
2018-06-23T10:00:26.988Z,91.70
2018-06-23T10:03:01.957Z,91.50
2018-06-23T10:05:34.728Z,90.90
2018-06-23T10:08:07.482Z,90.50
2018-06-23T10:10:40.262Z,90.60
2018-06-23T10:13:13.197Z,90.30
2018-06-23T10:15:46.145Z,90.40
2018-06-23T10:18:18.970Z,90.10
2018-06-23T10:23:24.257Z,89.20
2018-06-23T10:25:56.758Z,88.90
2018-06-23T10:28:30.053Z,88.40
2018-06-23T10:31:02.573Z,86.30
2018-06-23T10:38:42.169Z,86.80
2018-06-23T10:41:14.707Z,86.90
2018-06-23T10:43:47.754Z,86.30
2018-06-23T10:46:20.347Z,84.90
2018-06-23T10:48:52.875Z,84.00
2018-06-23T10:54:03.767Z,83.50
2018-06-23T10:59:09.082Z,81.30
2018-06-23T11:01:41.567Z,81.50
2018-06-23T11:04:14.207Z,81.00
2018-06-23T11:06:46.676Z,81.10
2018-06-23T11:09:19.785Z,79.80
2018-06-23T11:11:52.378Z,79.10
2018-06-23T11:14:24.903Z,78.50
2018-06-23T11:16:57.418Z,78.90
2018-06-23T11:19:30.106Z,78.50
2018-06-23T11:22:02.521Z,78.20
2018-06-23T11:24:35.205Z,78.00
2018-06-23T11:27:07.528Z,77.90
2018-06-23T11:29:39.990Z,77.00
2018-06-23T11:32:12.558Z,77.10
2018-06-23T11:34:45.106Z,76.70
2018-06-23T11:37:17.726Z,76.30
2018-06-23T11:39:50.333Z,74.80
2018-06-23T11:42:23.125Z,74.20
2018-06-23T11:44:55.695Z,74.40
2018-06-23T11:47:28.703Z,74.50
2018-06-23T11:50:01.384Z,74.20
2018-06-23T11:52:33.788Z,73.90
2018-06-23T11:55:06.357Z,73.70
2018-06-23T11:57:38.965Z,73.50
2018-06-23T12:00:11.598Z,72.30
2018-06-23T12:02:44.068Z,72.20
2018-06-23T12:05:16.528Z,72.00
2018-06-23T12:07:49.057Z,71.60
2018-06-23T12:10:21.654Z,71.00
2018-06-23T12:12:54.099Z,70.00
2018-06-23T12:15:26.832Z,70.50
2018-06-23T12:17:59.335Z,70.60
2018-06-23T12:20:31.937Z,71.30
2018-06-23T12:23:04.691Z,72.10
2018-06-23T12:25:37.460Z,76.40
2018-06-23T12:28:10.076Z,76.20
2018-06-23T12:30:42.591Z,79.00
2018-06-23T12:33:15.070Z,80.10
2018-06-23T12:35:47.574Z,79.10
2018-06-23T12:38:20.012Z,80.40
2018-06-23T12:40:52.813Z,81.60
2018-06-23T12:43:25.582Z,81.70
2018-06-23T12:45:58.160Z,80.80
2018-06-23T12:48:33.046Z,80.60
2018-06-23T12:51:06.403Z,81.00
2018-06-23T12:53:38.966Z,80.80
2018-06-23T12:56:11.526Z,81.60
2018-06-23T12:58:44.005Z,82.10
2018-06-23T13:01:16.803Z,81.60
2018-06-23T13:03:49.388Z,81.20
2018-06-23T13:06:22.049Z,79.90
2018-06-23T13:08:54.526Z,79.20
2018-06-23T13:11:28.519Z,80.30
2018-06-23T13:14:06.113Z,79.30
2018-06-23T13:16:39.202Z,80.00
2018-06-23T13:19:14.812Z,82.10
2018-06-23T13:21:48.113Z,84.00
2018-06-23T13:24:22.544Z,85.80
2018-06-23T13:26:55.004Z,86.90
2018-06-23T13:29:27.690Z,88.70
2018-06-23T13:32:00.236Z,90.30
2018-06-23T13:34:33.075Z,90.60
2018-06-23T13:37:05.681Z,90.70
2018-06-23T13:39:38.528Z,91.10
2018-06-23T13:42:11.092Z,91.70
2018-06-23T13:44:43.576Z,91.30
2018-06-23T13:47:16.108Z,90.70
2018-06-23T13:49:48.815Z,90.10
2018-06-23T13:52:21.289Z,88.70
2018-06-23T13:54:53.667Z,89.30
2018-06-23T13:57:26.163Z,89.60
2018-06-23T14:02:31.413Z,89.60
2018-06-23T14:05:04.440Z,89.00
2018-06-23T14:07:37.224Z,88.40
2018-06-23T14:10:09.699Z,89.00
2018-06-23T14:12:42.201Z,88.90
2018-06-23T14:15:14.682Z,86.40
2018-06-23T14:17:47.122Z,85.50
2018-06-23T14:20:19.565Z,86.00
2018-06-23T14:25:24.622Z,88.30
2018-06-23T14:27:57.679Z,88.70
2018-06-23T14:30:30.450Z,87.80
2018-06-23T14:33:02.987Z,87.40
2018-06-23T14:35:35.486Z,87.20
2018-06-23T14:38:08.255Z,87.70
2018-06-23T14:40:40.695Z,87.80
2018-06-23T14:43:13.276Z,87.70
2018-06-23T14:45:45.948Z,87.70
2018-06-23T14:48:18.675Z,87.70
2018-06-23T14:50:51.389Z,87.60
2018-06-23T14:53:23.883Z,88.00
2018-06-23T14:55:56.438Z,88.60
2018-06-23T14:58:28.911Z,86.70
2018-06-23T15:01:01.400Z,86.60
2018-06-23T15:03:34.379Z,87.70
2018-06-23T15:06:08.058Z,87.30
2018-06-23T15:08:52.292Z,87.00
2018-06-23T15:11:36.582Z,86.30
2018-06-23T15:14:09.040Z,84.80
2018-06-23T15:16:41.691Z,84.40
2018-06-23T15:19:14.468Z,84.70
2018-06-23T15:21:47.347Z,84.50
2018-06-23T15:24:19.779Z,84.10
2018-06-23T15:26:52.398Z,84.00
2018-06-23T15:29:24.938Z,85.30
2018-06-23T15:31:57.478Z,86.60
2018-06-23T15:34:30.125Z,88.70
2018-06-23T15:37:02.625Z,90.30
2018-06-23T15:39:35.254Z,91.20
2018-06-23T15:42:07.948Z,92.20
2018-06-23T15:44:42.111Z,93.30
2018-06-23T15:47:15.628Z,93.90
2018-06-23T15:49:48.143Z,94.30
2018-06-23T15:52:21.002Z,94.60
2018-06-23T15:54:53.481Z,94.50
2018-06-23T15:57:26.171Z,94.40
2018-06-23T15:59:58.618Z,93.80
2018-06-23T16:02:31.133Z,93.50
2018-06-23T16:05:04.569Z,93.20
2018-06-23T16:07:37.115Z,92.40
2018-06-23T16:10:19.657Z,91.90
2018-06-23T16:12:52.920Z,91.80
2018-06-23T16:15:25.388Z,91.30
2018-06-23T16:17:58.006Z,91.60
2018-06-23T16:20:30.605Z,91.00
2018-06-23T16:23:03.337Z,91.10
2018-06-23T16:25:36.057Z,91.20
2018-06-23T16:28:08.691Z,91.30
2018-06-23T16:30:41.175Z,91.40
2018-06-23T16:33:13.920Z,91.50
2018-06-23T16:35:46.498Z,91.60
2018-06-23T16:38:19.267Z,91.60
2018-06-23T16:40:51.839Z,92.10
2018-06-23T16:43:24.273Z,92.00
2018-06-23T16:46:00.614Z,92.80
2018-06-23T16:48:33.133Z,93.50
2018-06-23T16:51:05.925Z,94.60
2018-06-23T16:53:38.450Z,94.30
2018-06-23T16:56:11.187Z,94.50
2018-06-23T16:58:43.937Z,94.80
2018-06-23T17:01:16.538Z,94.60
2018-06-23T17:03:49.092Z,93.40
2018-06-23T17:06:21.614Z,93.70
2018-06-23T17:13:58.974Z,93.10
2018-06-23T17:16:31.472Z,93.00
2018-06-23T17:19:04.292Z,93.00
2018-06-23T17:21:36.693Z,93.00
2018-06-23T17:24:09.300Z,93.00
2018-06-23T17:26:43.957Z,93.00
2018-06-23T17:29:16.543Z,92.70
2018-06-23T17:31:48.988Z,93.00
2018-06-23T17:34:21.441Z,93.00
2018-06-23T17:36:53.908Z,93.00
2018-06-23T17:39:26.391Z,93.00
2018-06-23T17:41:59.052Z,93.20
2018-06-23T17:44:31.541Z,93.10
2018-06-23T17:47:03.994Z,93.00
2018-06-23T17:49:36.508Z,93.40
2018-06-23T17:52:09.076Z,93.50
2018-06-23T17:54:41.625Z,93.70
2018-06-23T17:57:14.209Z,93.80
2018-06-23T17:59:46.594Z,94.00
2018-06-23T18:02:19.238Z,94.20
2018-06-23T18:04:51.616Z,94.30
2018-06-23T18:07:24.281Z,94.50
2018-06-23T18:09:56.874Z,94.40
2018-06-23T18:12:29.388Z,94.70
2018-06-23T18:15:01.825Z,95.00
2018-06-23T18:17:34.367Z,95.00
2018-06-23T18:20:07.205Z,95.00
2018-06-23T18:22:39.654Z,95.00
2018-06-23T18:25:12.370Z,94.90
2018-06-23T18:27:47.974Z,95.00
2018-06-23T18:30:21.476Z,95.00
2018-06-23T18:32:54.045Z,95.00
2018-06-23T18:35:26.534Z,95.20
2018-06-23T18:37:58.950Z,95.70
2018-06-23T18:40:31.796Z,95.90
2018-06-23T18:43:04.224Z,95.90
2018-06-23T18:45:36.699Z,96.10
2018-06-23T18:48:09.552Z,96.20
2018-06-23T18:50:42.027Z,95.90
2018-06-23T18:53:14.547Z,96.20
2018-06-23T18:55:47.031Z,96.20
2018-06-23T18:58:19.422Z,96.30
2018-06-23T19:00:51.897Z,96.40
2018-06-23T19:03:24.609Z,96.40
2018-06-23T19:05:57.227Z,96.70
2018-06-23T19:08:29.813Z,96.60
2018-06-23T19:11:02.254Z,96.60
2018-06-23T19:13:34.729Z,96.70
2018-06-23T19:16:07.216Z,96.90
2018-06-23T19:18:39.662Z,96.90
2018-06-23T19:21:12.178Z,97.00
2018-06-23T19:23:44.601Z,97.00
2018-06-23T19:26:17.080Z,96.90
2018-06-23T19:28:49.587Z,96.90
2018-06-23T19:31:22.209Z,97.00
2018-06-23T19:33:54.999Z,97.50
2018-06-23T19:36:27.371Z,97.80
2018-06-23T19:41:32.205Z,98.80
2018-06-23T19:44:04.693Z,98.90
2018-06-23T19:46:37.111Z,98.90
2018-06-23T19:49:09.711Z,99.30
2018-06-23T19:51:42.081Z,99.70
2018-06-23T19:54:14.737Z,99.80
2018-06-23T19:56:47.189Z,99.90
2018-06-23T19:59:20.237Z,99.90
2018-06-23T20:01:52.634Z,99.90
2018-06-23T20:04:25.076Z,99.90
2018-06-23T20:06:57.533Z,99.90
2018-06-23T20:09:30.056Z,99.90
2018-06-23T20:12:02.552Z,99.90
2018-06-23T20:14:35.030Z,99.90
2018-06-23T20:17:07.485Z,99.90
2018-06-23T20:19:39.892Z,99.90
2018-06-23T20:22:12.436Z,99.90
2018-06-23T20:24:44.907Z,99.90
2018-06-23T20:27:17.630Z,99.90
2018-06-23T20:29:51.354Z,99.90
2018-06-23T20:32:23.818Z,99.90
2018-06-23T20:34:56.293Z,99.90
2018-06-23T20:37:28.683Z,99.90
2018-06-23T20:40:01.261Z,99.90
2018-06-23T20:42:33.704Z,99.90
2018-06-23T20:45:06.326Z,99.90
2018-06-23T20:47:38.768Z,99.90
2018-06-23T20:50:12.788Z,99.90
2018-06-23T20:52:45.276Z,99.90
2018-06-23T20:55:17.722Z,99.90
2018-06-23T20:57:50.557Z,99.90
2018-06-23T21:00:23.138Z,99.90
2018-06-23T21:02:55.581Z,99.90
2018-06-23T21:05:28.543Z,99.90
2018-06-23T21:08:01.087Z,99.90
2018-06-23T21:10:40.599Z,99.90
2018-06-23T21:13:13.294Z,99.90
2018-06-23T21:15:45.887Z,99.90
2018-06-23T21:20:51.058Z,99.90
2018-06-23T21:23:23.466Z,99.90
2018-06-23T21:25:55.897Z,99.90
2018-06-23T21:28:28.361Z,99.90
2018-06-23T21:31:04.131Z,99.90
2018-06-23T21:33:36.644Z,99.90
2018-06-23T21:36:09.090Z,99.90
2018-06-23T21:38:41.589Z,99.90
2018-06-23T21:41:14.077Z,99.90
2018-06-23T21:43:46.593Z,99.90
2018-06-23T21:46:19.208Z,99.90
2018-06-23T21:48:51.656Z,99.90
2018-06-23T21:51:24.499Z,99.90
2018-06-23T21:53:56.945Z,99.90
2018-06-23T21:56:29.400Z,99.90
2018-06-23T22:01:34.314Z,99.90
2018-06-23T22:04:06.966Z,99.90
2018-06-23T22:06:39.388Z,99.90
2018-06-23T22:09:11.879Z,99.90
2018-06-23T22:11:44.377Z,99.90
2018-06-23T22:14:16.836Z,99.90
2018-06-23T22:16:49.352Z,99.90
2018-06-23T22:19:22.283Z,99.90
2018-06-23T22:21:54.749Z,99.90
2018-06-23T22:24:27.187Z,99.90
2018-06-23T22:26:59.595Z,99.90
2018-06-23T22:29:32.092Z,99.90
2018-06-23T22:32:05.665Z,99.90
2018-06-23T22:34:38.283Z,99.90
2018-06-23T22:37:10.818Z,99.90
2018-06-23T22:39:43.313Z,99.90
2018-06-23T22:42:15.732Z,99.90
2018-06-23T22:44:48.187Z,99.90
2018-06-23T22:47:20.636Z,99.90
2018-06-23T22:49:53.175Z,99.90
2018-06-23T22:52:25.672Z,99.90
2018-06-23T22:54:58.361Z,99.90
2018-06-23T22:57:30.826Z,99.90
2018-06-23T23:00:07.034Z,99.90
2018-06-23T23:02:39.630Z,99.90
2018-06-23T23:05:12.247Z,99.90
2018-06-23T23:07:44.750Z,99.90
2018-06-23T23:10:17.185Z,99.90
2018-06-23T23:12:51.863Z,99.90
2018-06-23T23:15:24.281Z,99.90
2018-06-23T23:17:58.347Z,99.90
2018-06-23T23:20:31.923Z,99.90
2018-06-23T23:23:05.788Z,99.90
2018-06-23T23:25:39.169Z,99.90
2018-06-23T23:28:11.597Z,99.90
2018-06-23T23:30:44.658Z,99.90
2018-06-23T23:33:17.169Z,99.90
2018-06-23T23:35:49.612Z,99.90
2018-06-23T23:38:22.165Z,99.90
2018-06-23T23:40:54.653Z,99.90
2018-06-23T23:43:27.142Z,99.90
2018-06-23T23:45:59.620Z,99.90
2018-06-23T23:48:32.040Z,99.90
2018-06-23T23:51:04.510Z,99.90
2018-06-23T23:53:36.990Z,99.90
2018-06-23T23:56:09.513Z,99.90
2018-06-23T23:58:42.067Z,99.90
